Terminal Aerodrome Forecast
Issued by NWS

Home | Current Version | Previous Version | Text Only | Print | Product List | Glossary On
Versions: 1 2 3 4 5 6 7 8 9 10 11 12
000
FTUS41 KBTV 060532
TAFMSS
TAF
KMSS 060532Z 0606/0706 23003KT P6SM FEW050
      TEMPO 0608/0611 3SM BR
     FM061300 22007KT P6SM FEW050=

USA.gov is the U.S. government's official web portal to all federal, state and local government web resources and services.